• Join FlightAware (Why Join?)
  • Login
  • US Flag 
02:33PM EDT


 

Airport Tracker/Info


-or-


 

Live Flight TrackerFlight Track Log ✈ AWE4079 ✈ 14-Apr-2013 ✈ KMHT - KPHL

Flight Track Log - Related Links

Times and Time Zones

All times are in EDT time to prevent confusion due to time zone crossing. See the AWE4079 flight status page for this flight to view local times or setup timezone preferences in your user account.

Time Position Orientation Groundspeed Altitude Reporting Facility
EDT Latitude Longitude Course Direction KTS MPH feet Rate Location/Type
05:31AM 42.9500 -71.4167 270° West 164 189 1,100  Level KA90
05:32AM 43.0019 -71.3869 23° Northeast 184 212 2,800 2,040 Climbing Boston Center
05:33AM 43.0564 -71.4172 338° Northwest 213 245 5,300 2,340 Climbing Boston Center
05:34AM 42.9411 -71.8197 279° West  Level FlightAware Approximate
05:34AM 43.0864 -71.4992 297° West 228 262 7,500  Level Boston Center
05:35AM 42.9500 -71.9489 270° West  Level FlightAware Approximate
05:35AM 43.0808 -71.5986 266° West 244 281 10,400  Level Boston Center
05:36AM 42.9501 -72.0790 270° West  Level FlightAware Approximate
05:36AM 43.0753 -71.6953 266° West 258 297 12,500  Level Boston Center
05:37AM 42.9500 -72.2091 270° West  Level FlightAware Approximate
05:37AM 43.0717 -71.8006 267° West 270 311 14,900  Level Boston Center
05:38AM 43.0681 -71.8972 267° West 276 318 16,500 1,740 Climbing Boston Center
05:39AM 43.0625 -72.0225 267° West 295 339 18,500 1,740 Climbing Boston Center
05:40AM 43.0586 -72.1361 267° West 301 346 20,000 1,260 Climbing Boston Center
05:42AM 43.0547 -72.2556 267° West 313 360 21,500 1,320 Climbing Boston Center
05:43AM 43.0506 -72.4117 268° West 313 360 23,200 1,380 Climbing Boston Center
05:44AM 43.0464 -72.5339 267° West 319 367 24,300 1,140 Climbing Boston Center
05:45AM 43.0317 -72.6644 261° West 333 383 25,600 780 Climbing Boston Center
05:46AM 43.0250 -72.7922 266° West 343 395 26,000 180 Climbing Boston Center
05:47AM 43.0183 -72.9256 266° West 348 400 26,000  Level Boston Center
05:48AM 43.0114 -73.0789 267° West 354 407 26,000  Level Boston Center
05:49AM 43.0042 -73.2094 266° West 359 413 26,000  Level Boston Center
05:50AM 42.9928 -73.3369 263° West 354 407 26,000  Level Boston Center
05:51AM 42.9400 -73.4442 236° Southwest 330 380 26,000  Level Boston Center
05:52AM 42.8828 -73.5508 234° Southwest 341 392 26,000  Level Boston Center
05:53AM 42.8317 -73.6547 236° Southwest 341 392 26,000  Level Boston Center
05:54AM 42.7742 -73.7525 231° Southwest 341 392 26,000  Level Boston Center
05:55AM 42.7208 -73.8531 234° Southwest 336 387 26,000  Level Boston Center
05:56AM 42.6739 -73.9508 237° Southwest 330 380 26,000  Level Boston Center
05:57AM 42.6267 -74.0514 237° Southwest 319 367 26,000  Level Boston Center
05:58AM 42.5814 -74.1544 239° Southwest 324 373 26,000  Level Boston Center
05:59AM 42.5317 -74.2544 236° Southwest 324 373 26,000  Level Boston Center
06:00AM 42.4800 -74.3572 236° Southwest 330 380 26,000  Level Boston Center
06:01AM 42.4261 -74.4625 235° Southwest 335 386 26,000  Level Boston Center
06:02AM 42.3656 -74.5842 236° Southwest 335 386 26,000  Level Boston Center
06:03AM 42.3136 -74.6892 236° Southwest 335 386 26,000 -300 Level Boston Center
06:05AM 42.1917 -74.9331 236° Southwest 342 394 25,100 -900 Descending New York Center
06:06AM 42.1247 -75.0014 217° Southwest 332 382 23,100 -2,100 Descending New York Center
06:07AM 42.0453 -75.0717 213° Southwest 332 382 21,000 -2,100 Descending New York Center
06:08AM 41.9617 -75.1386 211° Southwest 337 388 19,000 -1,020 Descending New York Center
06:09AM 41.8844 -75.2006 211° Southwest 331 381 19,000  Level New York Center
06:10AM 41.8158 -75.2572 212° Southwest 324 373 19,000  Level New York Center
06:11AM 41.7319 -75.3267 212° Southwest 324 373 19,000 -840 Level New York Center
06:12AM 41.6544 -75.3878 211° Southwest 324 373 17,400 -1,860 Descending New York Center
06:13AM 41.5794 -75.4464 210° Southwest 324 373 15,400 -2,040 Descending New York Center
06:14AM 41.5106 -75.5025 211° Southwest 324 373 13,400 -1,740 Descending New York Center
06:15AM 41.4417 -75.5586 211° Southwest 317 365 12,000 -720 Descending New York Center
06:16AM 41.3642 -75.6194 211° Southwest 306 352 12,000  Level New York Center
06:17AM 41.2994 -75.6700 210° Southwest 306 352 12,000  Level New York Center
06:18AM 41.2050 -75.6881 188° South 301 346 12,000  Level New York Center
06:19AM 41.1133 -75.6897 181° South 322 371 12,000  Level New York Center
06:20AM 41.0344 -75.6867 178° South 327 376 12,000  Level New York Center
06:21AM 40.9425 -75.6883 181° South 336 387 12,000  Level New York Center
06:22AM 40.8406 -75.6864 179° South 336 387 12,000  Level New York Center
06:23AM 40.7489 -75.6853 179° South 336 387 12,000  Level New York Center
06:24AM 40.6550 -75.6867 181° South 336 387 12,000 -300 Level New York Center
06:25AM 40.5728 -75.6589 166° South 336 387 11,500 -720 Descending New York Center
06:26AM 40.5389 -75.6025 128° Southeast 372 428 11,000 -1,080 Descending FAA TRACON SMA TRACON (SMA)
06:26AM 40.5211 -75.5675 124° Southeast 372 428 10,700 -900 Descending FAA TRACON SMA TRACON (SMA)
06:26AM 40.4986 -75.5253 125° Southeast 369 425 10,400 -900 Descending FAA TRACON SMA TRACON (SMA)
06:27AM 40.4811 -75.4911 124° Southeast 367 422 10,100 -600 Descending FAA TRACON SMA TRACON (SMA)
06:27AM 40.4628 -75.4581 126° Southeast 366 421 10,000 -180 Descending FAA TRACON SMA TRACON (SMA)
06:27AM 40.4392 -75.4283 136° Southeast 321 369 10,000  Level FAA TRACON SMA TRACON (SMA)
06:28AM 40.4125 -75.4119 155° Southeast 313 360 10,000  Level FAA TRACON SMA TRACON (SMA)
06:28AM 40.3878 -75.3967 155° Southeast 316 364 10,000  Level FAA TRACON SMA TRACON (SMA)
06:28AM 40.3572 -75.3786 156° South 316 364 10,000  Level FAA TRACON SMA TRACON (SMA)
06:29AM 40.3325 -75.3647 157° South 317 365 10,000 -780 Level FAA TRACON SMA TRACON (SMA)
06:29AM 40.3025 -75.3469 156° South 313 360 9,500 -1,500 Descending FAA TRACON SMA TRACON (SMA)
06:29AM 40.2778 -75.3322 156° South 310 357 9,000 -1,500 Descending FAA TRACON SMA TRACON (SMA)
06:30AM 40.2544 -75.3192 157° South 306 352 8,500 -1,500 Descending FAA TRACON SMA TRACON (SMA)
06:30AM 40.2303 -75.3058 157° South 301 346 8,000 -1,800 Descending FAA TRACON SMA TRACON (SMA)
06:30AM 40.2031 -75.2911 158° South 289 333 7,300 -1,980 Descending FAA TRACON SMA TRACON (SMA)
06:31AM 40.1803 -75.2753 152° Southeast 287 330 6,700 -1,740 Descending FAA TRACON SMA TRACON (SMA)
06:31AM 40.1589 -75.2611 153° Southeast 286 329 6,200 -1,680 Descending FAA TRACON SMA TRACON (SMA)
06:31AM 40.1314 -75.2433 154° Southeast 281 323 5,600 -1,500 Descending FAA TRACON SMA TRACON (SMA)
06:32AM 40.1106 -75.2294 153° Southeast 276 318 5,200 -1,500 Descending FAA TRACON SMA TRACON (SMA)
06:32AM 40.0897 -75.2150 152° Southeast 274 315 4,600 -1,800 Descending FAA TRACON SMA TRACON (SMA)
06:32AM 40.0636 -75.1978 153° Southeast 275 316 4,000 -1,380 Descending FAA TRACON SMA TRACON (SMA)
06:33AM 40.0419 -75.1833 153° Southeast 280 322 3,700 -600 Descending FAA TRACON SMA TRACON (SMA)
06:33AM 40.0211 -75.1697 153° Southeast 278 320 3,600 -600 Descending FAA TRACON SMA TRACON (SMA)
06:33AM 39.9958 -75.1531 153° Southeast 235 270 3,300 -780 Descending FAA TRACON SMA TRACON (SMA)
06:34AM 39.9775 -75.1403 152° Southeast 240 276 3,100 -480 Descending FAA TRACON SMA TRACON (SMA)
06:34AM 39.9619 -75.1303 154° Southeast 227 261 3,000 -300 Descending FAA TRACON SMA TRACON (SMA)
06:34AM 39.9411 -75.1186 157° South 177 204 2,900 -360 Descending FAA TRACON SMA TRACON (SMA)